Lucky Thirteen — WDD8654 — position and weather

sailwx.info

Track history (hours):
 
Tides and Currents Weather Stations Pressure Air Temp Water Temp Dewpoint Dewpoint Depression Visibility Wind Speed Wind Dir Waves Ship Positions

Lucky Thirteen

Owner: Kristine L Inc., Barnegat Light, NJ. More information available from US FCC via Universal Licensing System and Coast Guard Vessel Documentation Center.

Last reported at 2017-Aug-16 21:06 UTC. Time now 2017-Aug-16 21:51 UTC.
Position N 39°45' W 074°07'.

Length 23 m.

Type: Fishing. MMSI: 367300990.

Date/timePositionNaut miles runAvg speedWind from/ knotsBaromVisibWave heightAir tempDewpointWater temp
2017-Aug-16 21:06N 39°45' W 074°07'0 0.0
2017-Aug-16 20:48N 39°45' W 074°07'0 0.0
2017-Aug-16 16:48N 39°45' W 074°07'0 0.0
2017-Aug-16 15:12N 39°45' W 074°07'0 0.0
2017-Aug-16 12:18N 39°45' W 074°07'0 0.0
2017-Aug-16 11:55N 39°45' W 074°07'0 0.0
2017-Aug-16 11:07N 39°45' W 074°07'0 0.0
2017-Aug-16 10:55N 39°45' W 074°07'0 0.0
2017-Aug-16 09:49N 39°45' W 074°07'0 0.0
2017-Aug-16 09:13N 39°45' W 074°07'0 0.0
2017-Aug-15 19:07N 39°45' W 074°07'0 0.0
2017-Aug-15 09:31N 39°45' W 074°07'0 0.0
2017-Aug-15 08:19N 39°45' W 074°07'0 0.0
2017-Aug-15 07:19N 39°45' W 074°07'0 0.0
2017-Aug-15 06:58N 39°45' W 074°07'0 0.0
2017-Aug-15 06:25N 39°45' W 074°07'0 0.0
2017-Aug-15 05:55N 39°45' W 074°07'0 0.0
2017-Aug-15 05:25N 39°45' W 074°07'0 0.0
2017-Aug-15 04:55N 39°45' W 074°07'0 0.0
2017-Aug-15 04:25N 39°45' W 074°07'0 0.0
2017-Aug-15 03:19N 39°45' W 074°07'0 0.0
2017-Aug-15 02:55N 39°45' W 074°07'0 0.0
2017-Aug-15 02:25N 39°45' W 074°07'0 0.0
2017-Aug-15 01:58N 39°45' W 074°07'0 0.0
2017-Aug-15 01:25N 39°45' W 074°07'0 0.0
2017-Aug-15 00:55N 39°45' W 074°07'0 0.0
2017-Aug-15 00:19N 39°45' W 074°07'0 0.0
2017-Aug-14 22:07N 39°45' W 074°07'0 0.0
2017-Aug-14 20:49N 39°45' W 074°07'0 0.0
2017-Aug-14 17:28N 39°45' W 074°07'0 0.0
2017-Aug-14 08:22N 39°45' W 074°07'0 0.0
2017-Aug-14 04:04N 39°45' W 074°07'0 0.0
2017-Aug-14 03:52N 39°45' W 074°07'0 0.0
2017-Aug-14 03:28N 39°45' W 074°07'0 0.0
2017-Aug-14 00:40N 39°45' W 074°07'0 0.0
2017-Aug-14 00:22N 39°45' W 074°07'0 0.0
2017-Aug-13 22:58N 39°45' W 074°07'0 0.0
2017-Aug-13 21:52N 39°45' W 074°07'0 0.0
2017-Aug-13 20:40N 39°45' W 074°07'0 0.0
2017-Aug-13 20:28N 39°45' W 074°07'0 0.0
2017-Aug-13 15:46N 39°45' W 074°07'0 0.0
2017-Aug-13 15:28N 39°45' W 074°07'0 0.0
2017-Aug-13 14:40N 39°45' W 074°07'0 0.0
2017-Aug-13 13:04N 39°45' W 074°07'0 0.0
2017-Aug-13 12:40N 39°45' W 074°07'0 0.0
2017-Aug-13 12:28N 39°45' W 074°07'0 0.0
2017-Aug-13 11:55N 39°45' W 074°07'0 0.0
2017-Aug-13 11:16N 39°45' W 074°07'0 0.0
2017-Aug-13 10:46N 39°45' W 074°07'0 0.0
2017-Aug-13 10:10N 39°45' W 074°07'0 0.0
2017-Aug-13 09:55N 39°45' W 074°07'0 0.0
2017-Aug-13 08:40N 39°45' W 074°07'0 0.0
2017-Aug-13 05:52N 39°45' W 074°07'0 0.0
2017-Aug-13 00:06N 39°45' W 074°07'0 3.1
2017-Aug-13 00:00N 39°45' W 074°07'3 6.8
2017-Aug-12 23:30N 39°46' W 074°03'10 0.6
2017-Aug-12 04:39N 39°48' W 073°49'4 8.5
2017-Aug-12 04:10N 39°47' W 073°55'1 8.6
2017-Aug-12 04:00N 39°47' W 073°56'4 8.7
2017-Aug-12 03:30N 39°46' W 074°02'4 7.3
2017-Aug-12 03:00N 39°46' W 074°07'1 1.3
2017-Aug-12 02:25N 39°45' W 074°07'1 3.4
2017-Aug-12 02:00N 39°46' W 074°05'4 7.9
2017-Aug-12 01:27N 39°47' W 073°60'4 8.1
2017-Aug-12 01:00N 39°48' W 073°55'4 8.3
2017-Aug-12 00:30N 39°49' W 073°50'4 8.4
2017-Aug-12 00:00N 39°50' W 073°45'10 0.6
2017-Aug-11 05:33N 39°47' W 073°57'2 8.6
2017-Aug-11 05:21N 39°46' W 073°60'3 8.7
2017-Aug-11 04:59N 39°46' W 074°04'3 1.8
2017-Aug-11 03:33N 39°45' W 074°07'0 0.0
2017-Aug-11 03:20N 39°45' W 074°07'0 0.0
2017-Aug-11 02:56N 39°45' W 074°07'0 0.0
2017-Aug-11 02:26N 39°45' W 074°07'0 0.0
2017-Aug-11 01:50N 39°45' W 074°07'0 0.0
2017-Aug-11 01:27N 39°45' W 074°07'0 0.0
2017-Aug-11 00:32N 39°45' W 074°07'0 0.0
2017-Aug-10 22:33N 39°45' W 074°07'0 0.0
2017-Aug-10 21:11N 39°45' W 074°07'0 0.0
2017-Aug-10 20:53N 39°45' W 074°07'0 0.0
2017-Aug-10 19:41N 39°45' W 074°07'0 0.0
2017-Aug-10 18:23N 39°45' W 074°07'0 0.0
2017-Aug-10 17:53N 39°45' W 074°07'0 0.0
2017-Aug-10 17:05N 39°45' W 074°07'0 0.0
2017-Aug-10 16:53N 39°45' W 074°07'0 0.0
2017-Aug-10 16:29N 39°45' W 074°07'0 0.0
2017-Aug-10 15:47N 39°45' W 074°07'0 0.0
2017-Aug-10 13:23N 39°45' W 074°07'0 0.0
2017-Aug-10 12:41N 39°45' W 074°07'0 0.0
2017-Aug-10 12:29N 39°45' W 074°07'0 0.0
2017-Aug-10 10:47N 39°45' W 074°07'0 0.0
2017-Aug-10 10:26N 39°45' W 074°07'0 0.0
2017-Aug-10 09:56N 39°45' W 074°07'0 0.0
2017-Aug-10 09:14N 39°45' W 074°07'0 0.0
2017-Aug-10 08:44N 39°45' W 074°07'0 0.0
2017-Aug-10 08:26N 39°45' W 074°07'0 0.0
2017-Aug-10 07:44N 39°45' W 074°07'0 0.0
2017-Aug-10 07:26N 39°45' W 074°07'0 0.0
2017-Aug-10 06:56N 39°45' W 074°07'0 0.0
2017-Aug-10 06:14N 39°45' W 074°07'0 0.0
2017-Aug-10 05:56N 39°45' W 074°07'0 0.0
2017-Aug-10 05:26N 39°45' W 074°07'0 0.0
2017-Aug-10 04:56N 39°45' W 074°07'0 0.0
2017-Aug-10 03:55N 39°45' W 074°07'0 0.0
2017-Aug-10 03:27N 39°45' W 074°07'0 0.0
2017-Aug-10 03:00N 39°45' W 074°07'0 0.0
2017-Aug-10 00:50N 39°45' W 074°07'0 0.0
2017-Aug-09 23:47N 39°45' W 074°07'0 0.0
2017-Aug-09 23:13N 39°45' W 074°07'0 0.0
2017-Aug-09 22:49N 39°45' W 074°07'0 0.0
2017-Aug-09 22:25N 39°45' W 074°07'0 0.0
2017-Aug-09 21:55N 39°45' W 074°07'0 0.0
2017-Aug-09 21:19N 39°45' W 074°07'0 0.0
2017-Aug-09 20:01N 39°45' W 074°07'0 0.0
2017-Aug-09 19:55N 39°45' W 074°07'0 0.0
2017-Aug-09 19:25N 39°45' W 074°07'0 0.0
2017-Aug-09 16:55N 39°45' W 074°07'0 0.0
2017-Aug-09 16:25N 39°45' W 074°07'0 0.0
2017-Aug-09 14:19N 39°45' W 074°07'1 3.3
2017-Aug-09 13:59N 39°46' W 074°06'5 8.1
2017-Aug-09 13:25N 39°46' W 073°60'4 8.7
2017-Aug-09 13:00N 39°46' W 073°55'8 0.4
2017-Aug-08 16:24N 39°46' W 074°06'1 0.5
2017-Aug-08 13:48N 39°45' W 074°07'0 0.0
2017-Aug-08 13:24N 39°45' W 074°07'0 0.0
2017-Aug-08 12:55N 39°45' W 074°07'0 0.0
2017-Aug-08 11:31N 39°45' W 074°07'0 0.0
2017-Aug-08 09:55N 39°45' W 074°07'0 0.0
2017-Aug-08 09:25N 39°45' W 074°07'0 0.0
2017-Aug-08 06:07N 39°45' W 074°07'0 0.0
2017-Aug-08 05:49N 39°45' W 074°07'0 0.0
2017-Aug-08 05:25N 39°45' W 074°07'0 0.0
2017-Aug-08 04:55N 39°45' W 074°07'0 0.0
2017-Aug-08 02:07N 39°45' W 074°07'0 0.0
2017-Aug-08 01:37N 39°45' W 074°07'0 0.0
2017-Aug-07 23:34N 39°45' W 074°07'0 0.0
2017-Aug-07 23:04N 39°45' W 074°07'0 0.0
2017-Aug-07 22:04N 39°45' W 074°07'0 0.1
2017-Aug-07 21:58N 39°45' W 074°07'0 0.0
2017-Aug-07 21:16N 39°45' W 074°07'0 0.0
2017-Aug-07 20:58N 39°45' W 074°07'0 0.0
2017-Aug-07 13:43N 39°45' W 074°07'0 0.0
2017-Aug-07 13:10N 39°45' W 074°07'0 0.0
2017-Aug-07 12:52N 39°45' W 074°07'0 0.0
2017-Aug-07 12:10N 39°45' W 074°07'0 0.0
2017-Aug-07 11:58N 39°45' W 074°07'0 0.0
2017-Aug-07 09:46N 39°45' W 074°07'0 0.0
2017-Aug-07 09:28N 39°45' W 074°07'0 0.0
2017-Aug-07 06:46N 39°45' W 074°07'0 0.0
2017-Aug-07 06:16N 39°45' W 074°07'0 0.0
2017-Aug-07 05:58N 39°45' W 074°07'0 0.0
2017-Aug-07 05:28N 39°45' W 074°07'0 0.0
2017-Aug-07 04:10N 39°45' W 074°07'0 0.0
2017-Aug-07 03:46N 39°45' W 074°07'0 0.0
2017-Aug-07 02:40N 39°45' W 074°07'0 0.0
2017-Aug-06 22:28N 39°45' W 074°07'0 0.0
2017-Aug-06 21:58N 39°45' W 074°07'0 0.0
2017-Aug-06 21:28N 39°45' W 074°07'  
Track history (hours):
 
Tides and Currents Weather Stations Pressure Air Temp Water Temp Dewpoint Dewpoint Depression Visibility Wind Speed Wind Dir Waves Ship Positions

Lucky Thirteen

Owner: Kristine L Inc., Barnegat Light, NJ. More information available from US FCC via Universal Licensing System and Coast Guard Vessel Documentation Center.

Last reported at 2017-Aug-16 21:06 UTC. Time now 2017-Aug-16 21:51 UTC.
Position N 39°45' W 074°07'.

Length 23 m.

Type: Fishing. MMSI: 367300990.

Date/timePositionNaut miles runAvg speedWind from/ knotsBaromVisibWave heightAir tempDewpointWater temp
2017-Aug-16 21:06N 39°45' W 074°07'0 0.0
2017-Aug-16 20:48N 39°45' W 074°07'0 0.0
2017-Aug-16 16:48N 39°45' W 074°07'0 0.0
2017-Aug-16 15:12N 39°45' W 074°07'0 0.0
2017-Aug-16 12:18N 39°45' W 074°07'0 0.0
2017-Aug-16 11:55N 39°45' W 074°07'0 0.0
2017-Aug-16 11:07N 39°45' W 074°07'0 0.0
2017-Aug-16 10:55N 39°45' W 074°07'0 0.0
2017-Aug-16 09:49N 39°45' W 074°07'0 0.0
2017-Aug-16 09:13N 39°45' W 074°07'0 0.0
2017-Aug-15 19:07N 39°45' W 074°07'0 0.0
2017-Aug-15 09:31N 39°45' W 074°07'0 0.0
2017-Aug-15 08:19N 39°45' W 074°07'0 0.0
2017-Aug-15 07:19N 39°45' W 074°07'0 0.0
2017-Aug-15 06:58N 39°45' W 074°07'0 0.0
2017-Aug-15 06:25N 39°45' W 074°07'0 0.0
2017-Aug-15 05:55N 39°45' W 074°07'0 0.0
2017-Aug-15 05:25N 39°45' W 074°07'0 0.0
2017-Aug-15 04:55N 39°45' W 074°07'0 0.0
2017-Aug-15 04:25N 39°45' W 074°07'0 0.0
2017-Aug-15 03:19N 39°45' W 074°07'0 0.0
2017-Aug-15 02:55N 39°45' W 074°07'0 0.0
2017-Aug-15 02:25N 39°45' W 074°07'0 0.0
2017-Aug-15 01:58N 39°45' W 074°07'0 0.0
2017-Aug-15 01:25N 39°45' W 074°07'0 0.0
2017-Aug-15 00:55N 39°45' W 074°07'0 0.0
2017-Aug-15 00:19N 39°45' W 074°07'0 0.0
2017-Aug-14 22:07N 39°45' W 074°07'0 0.0
2017-Aug-14 20:49N 39°45' W 074°07'0 0.0
2017-Aug-14 17:28N 39°45' W 074°07'0 0.0
2017-Aug-14 08:22N 39°45' W 074°07'0 0.0
2017-Aug-14 04:04N 39°45' W 074°07'0 0.0
2017-Aug-14 03:52N 39°45' W 074°07'0 0.0
2017-Aug-14 03:28N 39°45' W 074°07'0 0.0
2017-Aug-14 00:40N 39°45' W 074°07'0 0.0
2017-Aug-14 00:22N 39°45' W 074°07'0 0.0
2017-Aug-13 22:58N 39°45' W 074°07'0 0.0
2017-Aug-13 21:52N 39°45' W 074°07'0 0.0
2017-Aug-13 20:40N 39°45' W 074°07'0 0.0
2017-Aug-13 20:28N 39°45' W 074°07'0 0.0
2017-Aug-13 15:46N 39°45' W 074°07'0 0.0
2017-Aug-13 15:28N 39°45' W 074°07'0 0.0
2017-Aug-13 14:40N 39°45' W 074°07'0 0.0
2017-Aug-13 13:04N 39°45' W 074°07'0 0.0
2017-Aug-13 12:40N 39°45' W 074°07'0 0.0
2017-Aug-13 12:28N 39°45' W 074°07'0 0.0
2017-Aug-13 11:55N 39°45' W 074°07'0 0.0
2017-Aug-13 11:16N 39°45' W 074°07'0 0.0
2017-Aug-13 10:46N 39°45' W 074°07'0 0.0
2017-Aug-13 10:10N 39°45' W 074°07'0 0.0
2017-Aug-13 09:55N 39°45' W 074°07'0 0.0
2017-Aug-13 08:40N 39°45' W 074°07'0 0.0
2017-Aug-13 05:52N 39°45' W 074°07'0 0.0
2017-Aug-13 00:06N 39°45' W 074°07'0 3.1
2017-Aug-13 00:00N 39°45' W 074°07'3 6.8
2017-Aug-12 23:30N 39°46' W 074°03'10 0.6
2017-Aug-12 04:39N 39°48' W 073°49'4 8.5
2017-Aug-12 04:10N 39°47' W 073°55'1 8.6
2017-Aug-12 04:00N 39°47' W 073°56'4 8.7
2017-Aug-12 03:30N 39°46' W 074°02'4 7.3
2017-Aug-12 03:00N 39°46' W 074°07'1 1.3
2017-Aug-12 02:25N 39°45' W 074°07'1 3.4
2017-Aug-12 02:00N 39°46' W 074°05'4 7.9
2017-Aug-12 01:27N 39°47' W 073°60'4 8.1
2017-Aug-12 01:00N 39°48' W 073°55'4 8.3
2017-Aug-12 00:30N 39°49' W 073°50'4 8.4
2017-Aug-12 00:00N 39°50' W 073°45'10 0.6
2017-Aug-11 05:33N 39°47' W 073°57'2 8.6
2017-Aug-11 05:21N 39°46' W 073°60'3 8.7
2017-Aug-11 04:59N 39°46' W 074°04'3 1.8
2017-Aug-11 03:33N 39°45' W 074°07'0 0.0
2017-Aug-11 03:20N 39°45' W 074°07'0 0.0
2017-Aug-11 02:56N 39°45' W 074°07'0 0.0
2017-Aug-11 02:26N 39°45' W 074°07'0 0.0
2017-Aug-11 01:50N 39°45' W 074°07'0 0.0
2017-Aug-11 01:27N 39°45' W 074°07'0 0.0
2017-Aug-11 00:32N 39°45' W 074°07'0 0.0
2017-Aug-10 22:33N 39°45' W 074°07'0 0.0
2017-Aug-10 21:11N 39°45' W 074°07'0 0.0
2017-Aug-10 20:53N 39°45' W 074°07'0 0.0
2017-Aug-10 19:41N 39°45' W 074°07'0 0.0
2017-Aug-10 18:23N 39°45' W 074°07'0 0.0
2017-Aug-10 17:53N 39°45' W 074°07'0 0.0
2017-Aug-10 17:05N 39°45' W 074°07'0 0.0
2017-Aug-10 16:53N 39°45' W 074°07'0 0.0
2017-Aug-10 16:29N 39°45' W 074°07'0 0.0
2017-Aug-10 15:47N 39°45' W 074°07'0 0.0
2017-Aug-10 13:23N 39°45' W 074°07'0 0.0
2017-Aug-10 12:41N 39°45' W 074°07'0 0.0
2017-Aug-10 12:29N 39°45' W 074°07'0 0.0
2017-Aug-10 10:47N 39°45' W 074°07'0 0.0
2017-Aug-10 10:26N 39°45' W 074°07'0 0.0
2017-Aug-10 09:56N 39°45' W 074°07'0 0.0
2017-Aug-10 09:14N 39°45' W 074°07'0 0.0
2017-Aug-10 08:44N 39°45' W 074°07'0 0.0
2017-Aug-10 08:26N 39°45' W 074°07'0 0.0
2017-Aug-10 07:44N 39°45' W 074°07'0 0.0
2017-Aug-10 07:26N 39°45' W 074°07'0 0.0
2017-Aug-10 06:56N 39°45' W 074°07'0 0.0
2017-Aug-10 06:14N 39°45' W 074°07'0 0.0
2017-Aug-10 05:56N 39°45' W 074°07'0 0.0
2017-Aug-10 05:26N 39°45' W 074°07'0 0.0
2017-Aug-10 04:56N 39°45' W 074°07'0 0.0
2017-Aug-10 03:55N 39°45' W 074°07'0 0.0
2017-Aug-10 03:27N 39°45' W 074°07'0 0.0
2017-Aug-10 03:00N 39°45' W 074°07'0 0.0
2017-Aug-10 00:50N 39°45' W 074°07'0 0.0
2017-Aug-09 23:47N 39°45' W 074°07'0 0.0
2017-Aug-09 23:13N 39°45' W 074°07'0 0.0
2017-Aug-09 22:49N 39°45' W 074°07'0 0.0
2017-Aug-09 22:25N 39°45' W 074°07'0 0.0
2017-Aug-09 21:55N 39°45' W 074°07'0 0.0
2017-Aug-09 21:19N 39°45' W 074°07'0 0.0
2017-Aug-09 20:01N 39°45' W 074°07'0 0.0
2017-Aug-09 19:55N 39°45' W 074°07'0 0.0
2017-Aug-09 19:25N 39°45' W 074°07'0 0.0
2017-Aug-09 16:55N 39°45' W 074°07'0 0.0
2017-Aug-09 16:25N 39°45' W 074°07'0 0.0
2017-Aug-09 14:19N 39°45' W 074°07'1 3.3
2017-Aug-09 13:59N 39°46' W 074°06'5 8.1
2017-Aug-09 13:25N 39°46' W 073°60'4 8.7
2017-Aug-09 13:00N 39°46' W 073°55'8 0.4
2017-Aug-08 16:24N 39°46' W 074°06'1 0.5
2017-Aug-08 13:48N 39°45' W 074°07'0 0.0
2017-Aug-08 13:24N 39°45' W 074°07'0 0.0
2017-Aug-08 12:55N 39°45' W 074°07'0 0.0
2017-Aug-08 11:31N 39°45' W 074°07'0 0.0
2017-Aug-08 09:55N 39°45' W 074°07'0 0.0
2017-Aug-08 09:25N 39°45' W 074°07'0 0.0
2017-Aug-08 06:07N 39°45' W 074°07'0 0.0
2017-Aug-08 05:49N 39°45' W 074°07'0 0.0
2017-Aug-08 05:25N 39°45' W 074°07'0 0.0
2017-Aug-08 04:55N 39°45' W 074°07'0 0.0
2017-Aug-08 02:07N 39°45' W 074°07'0 0.0
2017-Aug-08 01:37N 39°45' W 074°07'0 0.0
2017-Aug-07 23:34N 39°45' W 074°07'0 0.0
2017-Aug-07 23:04N 39°45' W 074°07'0 0.0
2017-Aug-07 22:04N 39°45' W 074°07'0 0.1
2017-Aug-07 21:58N 39°45' W 074°07'0 0.0
2017-Aug-07 21:16N 39°45' W 074°07'0 0.0
2017-Aug-07 20:58N 39°45' W 074°07'0 0.0
2017-Aug-07 13:43N 39°45' W 074°07'0 0.0
2017-Aug-07 13:10N 39°45' W 074°07'0 0.0
2017-Aug-07 12:52N 39°45' W 074°07'0 0.0
2017-Aug-07 12:10N 39°45' W 074°07'0 0.0
2017-Aug-07 11:58N 39°45' W 074°07'0 0.0
2017-Aug-07 09:46N 39°45' W 074°07'0 0.0
2017-Aug-07 09:28N 39°45' W 074°07'0 0.0
2017-Aug-07 06:46N 39°45' W 074°07'0 0.0
2017-Aug-07 06:16N 39°45' W 074°07'0 0.0
2017-Aug-07 05:58N 39°45' W 074°07'0 0.0
2017-Aug-07 05:28N 39°45' W 074°07'0 0.0
2017-Aug-07 04:10N 39°45' W 074°07'0 0.0
2017-Aug-07 03:46N 39°45' W 074°07'0 0.0
2017-Aug-07 02:40N 39°45' W 074°07'0 0.0
2017-Aug-06 22:28N 39°45' W 074°07'0 0.0
2017-Aug-06 21:58N 39°45' W 074°07'0 0.0
2017-Aug-06 21:28N 39°45' W 074°07'  

Dump ship's entire track history